Scroll down
FLIGHT INFORMATION
Federal Express (FedEx)

FDX3

At Arrival Gate

LFPG
 KIND
DATE: 2021-03-07
GATE:  -
GATE DEPARTURE: 23:04
TAKEOFF: 23:16
DATE: 2021-03-08
GATE:  -
LANDING: 07:30
GATE ARRIVAL: 07:34
FLIGHT DATA
Crew: 
Speed: 
488 kts
Altitude: 
38,008 ft
Stage Length: 
3,632.1 nm
Block Time: 
8.4 hrs
Flight Time: 
8.2 hrs
Fuel Used: 
129,526 lb
Cleared Route: LFPG ATREX VESAN RATUK SOVAT SANDY BIG GOXUL LINDY NORRY CPT KENET GAVGO DEZZU DIKAS LUFTU STU BAKUR RESNO 5620N 5730N 5740N 5650N JANJO MT YYB 4680N NOSIK HOCKE SJAAY KIND
TRACK DATA
50,000 ft 1,000 kts
AIRCRAFT INFO AND CUMULATIVE STATS
Aircraft Type: 
B77LF
Registration: 
SELCAL: 
FRJK
MSN/LN: 
37730 / 1134
Total Flights: 
5
Total Block Time: 
53.8 hrs
Total Flight Time: 
52.8 hrs
Total Fuel Used: 
728,253 lb
DATALINK LOG | Newest first | Current as of: 2022-09-25 18:12:37
LABEL SEQUENCE CONTENT Dn/Up
QD470707:34 20.3▼ Dn
QC440407:30▼ Dn
2U3501KIND 071954Z 00000KT 10SM SCT250 09/M10 A3043 RMK AO2 SLP308 T00941100▲ Up
2S3501KIND▼ Dn
UM205837CLEARED TO FL 380▲ Up
DM65826REQUEST FL 380▼ Dn
QB291223:16▼ Dn
QA180323:04 149.9▼ Dn
A35918CLEARED TO KIND VIA aTREX UT225 VESAN UL613 SOVAT L613 SANDY L15 BIG UL9 STU N546 BAKUR RESNO 56/20 57/30 57/40 56/50 JANJO MT YYB 4680N NOSIK HOCKE SJAAY SNKPT2 . SQUAWK 2267.▲ Up
2U5917LFPG 071230Z 04007KT 360V090 CAVOK 07/M04 Q1024 NOSIG▲ Up
2U5916KCVG 071252Z 36006KT 10SM CLR M02/M08 A3040 RMK AO2 SLP299 T10221083▲ Up
2U5916KIND 071254Z 07006KT 10SM FEW250 M02/M09 A3042 RMK AO2 SLP308 T10171089▲ Up
2S5915LFPG KIND KCVG▼ Dn
B35908LFPG KIND FDX0003 N859FD ▼ Dn
Q05706[LINK ACK]▲ Up
Q05706[LINK TEST]▼ Dn


AIRCRAFT HISTORY
FLIGHT DATE FLIGHT NO. ORIGIN DESTINATION CLEARED ROUTE BLOCK TIME FLIGHT TIME FUEL USED PILOT
2021-07-26FDX9859LGAV LIMC LGAV KOR RIMAX XANIS YNN TUMBO RODON SIPAL ROTAR VIC ADOSA IDREK ELTAR NOBMI NEVNI OSKOR ORI LEGLO PEXUG LIMC2.5 hrs2.2 hrs29,152 lbAllan Burek
2021-07-24FDX724RJBB LGAV RJBB BB430 HELEN MAIKO KAWAT OYE YUBAR MIHOU KAPPA IGRAS SABET PALDU KANSU SUBUK KAKPU ANKOG VASRO YNJ KANVU SAMAV UGABI KETOV HRB ONINA NDG TEPOD HLD KAGAK MANLI TELOK BADEK NAREM NEKLU AGINO LASAD KTN ALUMI MOPON ARNAB NIRUN GOGIL LUPIT NAROB ABLAS UBORA OSNIK OMITA OLBIG SOTOM BANUK UMRAT USOLI SOREB PAROM NJC TETSI APRAN ULGUN OGIKA NEGNA LARTU ABGIL SORLI NETLU OGROM OSKEL SOGTE NIPSI UGBAT TISRU SONIB RATUN BITBA IBREL RESTA LORPI BALOB RUKUT ROTLO EKMOK RISIM POGAS BAPEG IPSES BULAT SOTOG DIVEK OBARO LIMPI ABUTO PIMEN NEMIP TUVOG BAKOK NEVRU LAVDA NUNTA OPT TUMOP BULEN TUNVO NIKTI LOPTI KPL ASPIV SUTIS KOROS AMISI NEVRA LGAV22.2 hrs22 hrs223,252 lbAlex K.
2021-07-23FDX723KIND RJBB KIND BVT KP87K DLH HLDOL VBI YNE 56N00 IKLIX 63N20 65N30 FIORD HSL OME ICEEE IDROD ROCET MUCLA MARCC MORLY NATES NIKLL NYMPH NUZAN NRKEY NIPPI NOGAL NUBDA NANNO NODAN NANAC NIKON BEKEN IXE DAIGO JD AKAGI GYODA TEPEX OSPAN PIGAP TENRU SUGAL NAKTU KOHWA SHIMA AYANO RAYJO KEC KISEI EVERT CANDY RJBB13.2 hrs13.1 hrs230,612 lbAlex K.
2021-03-07FDX3LFPG KIND LFPG ATREX VESAN RATUK SOVAT SANDY BIG GOXUL LINDY NORRY CPT KENET GAVGO DEZZU DIKAS LUFTU STU BAKUR RESNO 5620N 5730N 5740N 5650N JANJO MT YYB 4680N NOSIK HOCKE SJAAY KIND8.4 hrs8.2 hrs129,526 lbAllan Burek
2021-02-26FDX30KIND LFPG KIND BDOCK APE EWC SFK HNK CTR LWM TUSKY SCOTS NICSO 4850N 5040N 5130N 5220N LIMRI XETBO MAPAG TUVEN LESLU INSUN LND NAKID ANNET UVSUV INGOR LUKIP LFPG7.5 hrs7.2 hrs115,711 lbAllan Burek